Atlanta Naval Air Station, Georgia
Current Conditions -  °F | °C
As of 9:58 PM on Monday 26 Jan 2015 (Local Time) from KMGE Reporting Station
Broken Clouds Broken Clouds  
Wind Chill: 27°   Ceiling: 10000
Heat Index: 35°   Visibility: 10mi
Dew Point: 28°   Wind: 9mph
Humidity: 75%   Direction: 310°NW
Pressure: 29.93"   Gusts: NA
Location:  33.9252°N, 84.5422°W
Report Text: KMGE 270258Z 31008KT 10SM FEW045 BKN100 02/M02 A2993 RMK AO2A SLP142 T00151025 51003 $
Loading
Personal Weather Stations






























Interactive Weather Map New forecast layout! Learn more

10-Day Weather Forecast

Advertisements
Track Severe Weather on mobile